Time;durP1;ratioP1;P1;durP2;ratioP2;P2;SDS_P1;SDS_P2;PMS_P1;PMS_P2;Temp;Humidity;BMP_temperature;BMP_pressure;BME280_temperature;BME280_humidity;BME280_pressure;Samples;Min_cycle;Max_cycle;Signal;HPM_P1;HPM_P2
2022/05/12 00:00:18;;;;;;;12.50;11.40;;;;;;;;;;4988423;28;20046;-69
2022/05/12 00:02:44;;;;;;;11.85;10.95;;;;;;;;;;4991641;28;20034;-69
2022/05/12 00:05:11;;;;;;;11.60;10.80;;;;;;;;;;4990122;28;20529;-70
2022/05/12 00:07:36;;;;;;;12.02;11.30;;;;;;;;;;4989227;28;21056;-69
2022/05/12 00:10:03;;;;;;;11.82;11.10;;;;;;;;;;4989561;28;20303;-69
2022/05/12 00:12:29;;;;;;;12.00;11.20;;;;;;;;;;4988745;28;20500;-69
2022/05/12 00:14:55;;;;;;;11.88;11.13;;;;;;;;;;4990249;28;20042;-69
2022/05/12 00:17:20;;;;;;;12.13;11.23;;;;;;;;;;4992712;28;20370;-69
2022/05/12 00:19:46;;;;;;;12.23;11.30;;;;;;;;;;4994247;28;20081;-70
2022/05/12 00:22:12;;;;;;;12.45;11.10;;;;;;;;;;4991668;28;20030;-69
2022/05/12 00:24:37;;;;;;;14.93;11.68;;;;;;;;;;4989099;28;20489;-69
2022/05/12 00:27:03;;;;;;;11.93;11.20;;;;;;;;;;4990056;28;20120;-69
2022/05/12 00:29:29;;;;;;;11.80;11.05;;;;;;;;;;4990210;28;21027;-69
2022/05/12 00:31:54;;;;;;;12.15;11.23;;;;;;;;;;4990517;28;20034;-69
2022/05/12 00:34:21;;;;;;;11.90;11.00;;;;;;;;;;4994022;28;20568;-69
2022/05/12 00:36:48;;;;;;;12.77;11.55;;;;;;;;;;5000843;28;20053;-70
2022/05/12 00:39:14;;;;;;;12.23;11.43;;;;;;;;;;4995099;28;20045;-70
2022/05/12 00:41:40;;;;;;;12.55;11.60;;;;;;;;;;4992562;28;20624;-70
2022/05/12 00:44:09;;;;;;;12.35;11.45;;;;;;;;;;4995507;28;20034;-69
2022/05/12 00:46:39;;;;;;;12.88;11.95;;;;;;;;;;4991742;28;20060;-70
2022/05/12 00:49:18;;;;;;;12.32;11.48;;;;;;;;;;4989291;28;20489;-69
2022/05/12 00:51:49;;;;;;;12.85;11.95;;;;;;;;;;4988666;28;20524;-69
2022/05/12 00:54:22;;;;;;;12.80;11.80;;;;;;;;;;4989261;28;20672;-69
2022/05/12 00:56:49;;;;;;;13.05;12.15;;;;;;;;;;4988945;28;20030;-69
2022/05/12 00:59:22;;;;;;;13.05;12.10;;;;;;;;;;4987295;28;20597;-69
2022/05/12 01:01:47;;;;;;;13.35;12.27;;;;;;;;;;4983684;28;20206;-69
2022/05/12 01:04:13;;;;;;;12.82;11.82;;;;;;;;;;4986286;28;20137;-69
2022/05/12 01:06:39;;;;;;;12.98;11.98;;;;;;;;;;4989540;28;20088;-69
2022/05/12 01:09:05;;;;;;;12.43;11.63;;;;;;;;;;4988662;28;20106;-69
2022/05/12 01:11:31;;;;;;;12.73;11.68;;;;;;;;;;4988425;28;20133;-71
2022/05/12 01:14:03;;;;;;;12.65;11.75;;;;;;;;;;4990429;28;20113;-69
2022/05/12 01:16:33;;;;;;;13.05;11.90;;;;;;;;;;4988555;28;20061;-69
2022/05/12 01:18:58;;;;;;;12.27;11.45;;;;;;;;;;4989335;28;20034;-69
2022/05/12 01:21:24;;;;;;;12.30;11.50;;;;;;;;;;4986205;28;20080;-69
2022/05/12 01:23:51;;;;;;;12.45;11.60;;;;;;;;;;4992857;28;20417;-70
2022/05/12 01:26:16;;;;;;;13.23;12.07;;;;;;;;;;4994081;28;20065;-70
2022/05/12 01:28:42;;;;;;;13.13;12.15;;;;;;;;;;4987215;28;20068;-70
2022/05/12 01:31:08;;;;;;;12.63;11.63;;;;;;;;;;4989608;28;20365;-70
2022/05/12 01:33:35;;;;;;;13.10;11.90;;;;;;;;;;4993991;28;20030;-70
2022/05/12 01:36:00;;;;;;;12.60;11.70;;;;;;;;;;4991512;28;20080;-70
2022/05/12 01:38:26;;;;;;;12.38;11.48;;;;;;;;;;4989883;28;20034;-70
2022/05/12 01:40:52;;;;;;;12.15;11.15;;;;;;;;;;4989707;28;20045;-69
2022/05/12 01:43:18;;;;;;;12.68;11.73;;;;;;;;;;4988502;28;20117;-69
2022/05/12 01:45:44;;;;;;;12.88;11.88;;;;;;;;;;4993253;28;20510;-69
2022/05/12 01:48:11;;;;;;;12.38;11.40;;;;;;;;;;4989067;28;20525;-69
2022/05/12 01:50:42;;;;;;;13.15;12.00;;;;;;;;;;4988847;28;20034;-69
2022/05/12 01:53:11;;;;;;;12.77;11.82;;;;;;;;;;4997043;28;20106;-69
2022/05/12 01:55:38;;;;;;;13.30;12.20;;;;;;;;;;4987062;28;20038;-71
2022/05/12 01:58:05;;;;;;;12.60;11.80;;;;;;;;;;4988457;28;20524;-70
2022/05/12 02:00:32;;;;;;;12.63;11.57;;;;;;;;;;4987056;28;20034;-70
2022/05/12 02:03:00;;;;;;;11.98;11.13;;;;;;;;;;4987570;28;20033;-69
2022/05/12 02:05:34;;;;;;;13.07;11.73;;;;;;;;;;4988702;28;20026;-69
2022/05/12 02:08:00;;;;;;;12.30;11.50;;;;;;;;;;4988999;28;20367;-69
2022/05/12 02:10:29;;;;;;;12.38;11.40;;;;;;;;;;4994532;28;20145;-70
2022/05/12 02:12:55;;;;;;;;;;;;;;;;;;4986002;28;20450;-69
2022/05/12 02:15:22;;;;;;;12.40;11.55;;;;;;;;;;4991090;28;20008;-70
2022/05/12 02:17:49;;;;;;;12.30;11.50;;;;;;;;;;4987581;28;20038;-69
2022/05/12 02:20:17;;;;;;;13.05;11.98;;;;;;;;;;4986497;28;20045;-69
2022/05/12 02:22:43;;;;;;;12.98;12.07;;;;;;;;;;4982656;28;20030;-69
2022/05/12 02:25:09;;;;;;;13.00;11.98;;;;;;;;;;4987481;28;20037;-69
2022/05/12 02:27:35;;;;;;;12.70;11.80;;;;;;;;;;4984559;28;20049;-69
2022/05/12 02:30:01;;;;;;;13.40;11.68;;;;;;;;;;4986016;28;20031;-69
2022/05/12 02:32:27;;;;;;;13.38;12.40;;;;;;;;;;4986344;28;20109;-69
2022/05/12 02:34:54;;;;;;;12.48;11.65;;;;;;;;;;4993381;28;20196;-70
2022/05/12 02:37:20;;;;;;;13.00;12.00;;;;;;;;;;4987342;28;20033;-69
2022/05/12 02:39:45;;;;;;;12.60;11.60;;;;;;;;;;4977782;28;20037;-70
2022/05/12 02:42:11;;;;;;;12.60;11.77;;;;;;;;;;4988028;28;20393;-69
2022/05/12 02:44:37;;;;;;;12.77;11.90;;;;;;;;;;4988748;28;20079;-69
2022/05/12 02:47:05;;;;;;;12.68;11.73;;;;;;;;;;4988682;28;20038;-70
2022/05/12 02:49:31;;;;;;;12.68;11.57;;;;;;;;;;4992443;28;20033;-69
2022/05/12 02:51:56;;;;;;;12.60;11.55;;;;;;;;;;4990022;28;20037;-69
2022/05/12 02:54:22;;;;;;;13.05;12.00;;;;;;;;;;4989015;28;20041;-70
2022/05/12 02:56:49;;;;;;;12.82;11.85;;;;;;;;;;4984821;28;20041;-69
2022/05/12 02:59:14;;;;;;;13.05;12.05;;;;;;;;;;4986203;28;20038;-70
2022/05/12 03:01:40;;;;;;;13.15;12.18;;;;;;;;;;4989163;28;20038;-69
2022/05/12 03:04:06;;;;;;;13.15;12.05;;;;;;;;;;4985919;28;20363;-69
2022/05/12 03:06:32;;;;;;;13.25;12.10;;;;;;;;;;4986653;28;20066;-69
2022/05/12 03:08:58;;;;;;;13.25;12.35;;;;;;;;;;4988236;28;20030;-69
2022/05/12 03:11:24;;;;;;;13.55;12.65;;;;;;;;;;4993592;28;20089;-70
2022/05/12 03:13:51;;;;;;;13.75;12.57;;;;;;;;;;4988883;28;20034;-70
2022/05/12 03:16:18;;;;;;;13.27;12.23;;;;;;;;;;4988987;28;20121;-70
2022/05/12 03:18:46;;;;;;;13.05;12.15;;;;;;;;;;4990157;28;20048;-70
2022/05/12 03:21:13;;;;;;;13.00;12.20;;;;;;;;;;4981218;28;20489;-70
2022/05/12 03:23:40;;;;;;;13.65;12.38;;;;;;;;;;4984178;28;20034;-70
2022/05/12 03:26:06;;;;;;;13.52;12.27;;;;;;;;;;4985024;28;20034;-69
2022/05/12 03:28:33;;;;;;;12.73;11.82;;;;;;;;;;4989869;28;20402;-70
2022/05/12 03:30:59;;;;;;;13.48;12.27;;;;;;;;;;4988887;28;20105;-70
2022/05/12 03:33:25;;;;;;;13.10;12.30;;;;;;;;;;4988852;28;20058;-69
2022/05/12 03:35:51;;;;;;;13.48;12.57;;;;;;;;;;4989494;28;20038;-70
2022/05/12 03:38:18;;;;;;;13.27;12.38;;;;;;;;;;4987929;28;20034;-69
2022/05/12 03:40:44;;;;;;;13.43;12.32;;;;;;;;;;4985987;28;20038;-70
2022/05/12 03:43:10;;;;;;;13.35;12.23;;;;;;;;;;4988437;28;20073;-70
2022/05/12 03:45:36;;;;;;;13.48;12.50;;;;;;;;;;4990260;28;20042;-70
2022/05/12 03:48:02;;;;;;;13.60;12.50;;;;;;;;;;4994413;28;20030;-70
2022/05/12 03:50:28;;;;;;;13.32;12.35;;;;;;;;;;4996947;28;20042;-70
2022/05/12 03:52:55;;;;;;;13.30;12.30;;;;;;;;;;4994716;28;20049;-70
2022/05/12 03:55:26;;;;;;;13.45;12.35;;;;;;;;;;4994473;28;20536;-70
2022/05/12 03:57:55;;;;;;;12.85;11.85;;;;;;;;;;4989269;28;20034;-70
2022/05/12 04:00:29;;;;;;;13.52;12.52;;;;;;;;;;4995986;28;20319;-69
2022/05/12 04:02:54;;;;;;;14.00;12.95;;;;;;;;;;4986815;28;20517;-69
2022/05/12 04:05:20;;;;;;;13.68;12.60;;;;;;;;;;4991257;28;20042;-70
2022/05/12 04:07:46;;;;;;;13.85;12.75;;;;;;;;;;4991692;28;20490;-70
2022/05/12 04:10:14;;;;;;;14.10;13.18;;;;;;;;;;4991043;28;20039;-70
2022/05/12 04:12:39;;;;;;;13.98;12.68;;;;;;;;;;4990201;28;20034;-69
2022/05/12 04:15:06;;;;;;;13.48;12.57;;;;;;;;;;4992500;28;20049;-69
2022/05/12 04:17:31;;;;;;;13.25;12.13;;;;;;;;;;4992252;28;20065;-69
2022/05/12 04:20:01;;;;;;;14.10;13.00;;;;;;;;;;4988199;28;20034;-69
2022/05/12 04:22:26;;;;;;;13.25;12.35;;;;;;;;;;4990271;28;20511;-69
2022/05/12 04:24:54;;;;;;;12.95;12.13;;;;;;;;;;4989713;28;20038;-70
2022/05/12 04:27:21;;;;;;;14.20;12.90;;;;;;;;;;4987817;28;20108;-69
2022/05/12 04:29:47;;;;;;;13.13;12.18;;;;;;;;;;4992684;28;20462;-69
2022/05/12 04:32:13;;;;;;;13.45;12.45;;;;;;;;;;4997372;28;20532;-69
2022/05/12 04:37:28;;;;;;;14.38;13.27;;;;;;;;;;4989270;28;20073;-69
2022/05/12 04:39:54;;;;;;;14.00;12.60;;;;;;;;;;4984428;28;20064;-69
2022/05/12 04:42:19;;;;;;;13.18;12.15;;;;;;;;;;4986648;28;20553;-69
2022/05/12 04:44:45;;;;;;;13.18;12.07;;;;;;;;;;4991813;28;20122;-69
2022/05/12 04:47:10;;;;;;;14.10;12.75;;;;;;;;;;4990064;28;20026;-69
2022/05/12 04:49:36;;;;;;;13.85;12.70;;;;;;;;;;4986751;28;20037;-69
2022/05/12 04:52:02;;;;;;;14.20;13.13;;;;;;;;;;4991519;28;20038;-70
2022/05/12 04:54:29;;;;;;;13.85;12.65;;;;;;;;;;4990564;28;20041;-70
2022/05/12 04:56:56;;;;;;;13.70;12.50;;;;;;;;;;4988693;28;20026;-69
2022/05/12 04:59:22;;;;;;;13.48;12.20;;;;;;;;;;4993595;28;20045;-69
2022/05/12 05:01:47;;;;;;;13.68;12.60;;;;;;;;;;4989806;28;20457;-69
2022/05/12 05:04:13;;;;;;;12.95;12.10;;;;;;;;;;4989020;28;20038;-70
2022/05/12 05:06:38;;;;;;;13.75;12.57;;;;;;;;;;4986445;28;20093;-69
2022/05/12 05:09:05;;;;;;;13.52;12.52;;;;;;;;;;4989222;28;20504;-69
2022/05/12 05:11:36;;;;;;;14.25;12.73;;;;;;;;;;4990279;28;20069;-69
2022/05/12 05:14:03;;;;;;;13.60;12.70;;;;;;;;;;4985970;28;20386;-69
2022/05/12 05:16:29;;;;;;;13.75;12.40;;;;;;;;;;4982214;28;20038;-69
2022/05/12 05:18:55;;;;;;;14.30;12.85;;;;;;;;;;4989656;28;20092;-70
2022/05/12 05:21:20;;;;;;;13.85;12.85;;;;;;;;;;4995320;28;20497;-70
2022/05/12 05:23:46;;;;;;;13.73;12.82;;;;;;;;;;4987447;28;20115;-69
2022/05/12 05:26:11;;;;;;;13.00;12.20;;;;;;;;;;4988718;28;20267;-69
2022/05/12 05:28:37;;;;;;;12.88;12.07;;;;;;;;;;4989644;28;20098;-69
2022/05/12 05:31:04;;;;;;;13.10;12.00;;;;;;;;;;4984972;28;20376;-69
2022/05/12 05:33:31;;;;;;;13.20;11.82;;;;;;;;;;4988863;28;20045;-69
2022/05/12 05:35:57;;;;;;;12.77;11.70;;;;;;;;;;4987965;28;20053;-68
2022/05/12 05:38:23;;;;;;;12.85;12.00;;;;;;;;;;4988826;28;20445;-69
2022/05/12 05:40:49;;;;;;;13.38;12.27;;;;;;;;;;4986268;28;20183;-68
2022/05/12 05:43:15;;;;;;;12.80;12.00;;;;;;;;;;4987664;28;20121;-69
2022/05/12 05:45:41;;;;;;;13.20;12.15;;;;;;;;;;4985277;28;20415;-68
2022/05/12 05:48:07;;;;;;;13.07;12.15;;;;;;;;;;4987805;28;20113;-70
2022/05/12 05:53:28;;;;;;;13.55;12.40;;;;;;;;;;4986014;28;20409;-69
2022/05/12 05:55:58;;;;;;;13.90;12.65;;;;;;;;;;4986974;28;20042;-69
2022/05/12 05:58:24;;;;;;;13.73;12.73;;;;;;;;;;4988788;28;20038;-70
2022/05/12 06:00:50;;;;;;;13.13;12.05;;;;;;;;;;4987852;28;20520;-69
2022/05/12 06:03:16;;;;;;;13.90;12.50;;;;;;;;;;4988292;28;20214;-70
2022/05/12 06:05:42;;;;;;;13.68;12.75;;;;;;;;;;4988179;28;20549;-70
2022/05/12 06:08:10;;;;;;;13.95;12.70;;;;;;;;;;4987395;28;20040;-70
2022/05/12 06:10:37;;;;;;;13.98;12.88;;;;;;;;;;4993199;28;20026;-69
2022/05/12 06:13:03;;;;;;;14.68;13.38;;;;;;;;;;4987942;28;20038;-70
2022/05/12 06:15:29;;;;;;;14.52;13.10;;;;;;;;;;4989306;28;20438;-70
2022/05/12 06:17:55;;;;;;;13.43;12.32;;;;;;;;;;4987584;28;20373;-69
2022/05/12 06:20:22;;;;;;;14.05;12.82;;;;;;;;;;4987261;28;20069;-69
2022/05/12 06:22:48;;;;;;;13.07;12.27;;;;;;;;;;4989155;28;20440;-69
2022/05/12 06:25:16;;;;;;;13.00;12.02;;;;;;;;;;4986808;28;20497;-68
2022/05/12 06:27:45;;;;;;;12.75;11.85;;;;;;;;;;4984788;28;20521;-69
2022/05/12 06:30:12;;;;;;;;;;;;;;;;;;4992276;28;20397;-69
2022/05/12 06:32:42;;;;;;;12.65;11.65;;;;;;;;;;4994173;28;19929;-69
2022/05/12 06:35:10;;;;;;;12.70;11.90;;;;;;;;;;4990201;28;20655;-69
2022/05/12 06:37:36;;;;;;;12.50;11.53;;;;;;;;;;4995117;28;20641;-69
2022/05/12 06:40:02;;;;;;;12.63;11.63;;;;;;;;;;4996116;28;20023;-70
2022/05/12 06:42:28;;;;;;;12.32;11.52;;;;;;;;;;4982815;28;20533;-68
2022/05/12 06:44:58;;;;;;;12.07;11.30;;;;;;;;;;4984624;28;20500;-69
2022/05/12 06:47:24;;;;;;;12.35;11.30;;;;;;;;;;4988205;28;20517;-68
2022/05/12 06:49:50;;;;;;;12.23;11.20;;;;;;;;;;4988158;28;20034;-69
2022/05/12 06:52:17;;;;;;;13.00;12.20;;;;;;;;;;4988752;28;20097;-69
2022/05/12 06:54:44;;;;;;;12.45;11.48;;;;;;;;;;4991491;28;20034;-70
2022/05/12 06:57:11;;;;;;;13.02;11.75;;;;;;;;;;4987494;28;20080;-69
2022/05/12 06:59:39;;;;;;;12.82;11.75;;;;;;;;;;4988373;28;20121;-69
2022/05/12 07:02:06;;;;;;;12.70;11.70;;;;;;;;;;4988743;28;20085;-70
2022/05/12 07:04:32;;;;;;;12.32;11.50;;;;;;;;;;4987203;28;20136;-70
2022/05/12 07:06:58;;;;;;;11.95;11.25;;;;;;;;;;4987074;28;20030;-69
2022/05/12 07:09:25;;;;;;;12.75;11.75;;;;;;;;;;4986426;28;20088;-69
2022/05/12 07:11:53;;;;;;;13.20;12.20;;;;;;;;;;4987455;28;20482;-68
2022/05/12 07:14:21;;;;;;;11.88;11.07;;;;;;;;;;4987951;28;20042;-68
2022/05/12 07:16:47;;;;;;;11.82;10.68;;;;;;;;;;4986740;28;20034;-69
2022/05/12 07:19:15;;;;;;;12.50;11.43;;;;;;;;;;4989082;28;20042;-70
2022/05/12 07:27:16;;;;;;;12.60;11.10;;;;;;;;;;4989937;28;20046;-70
2022/05/12 07:29:43;;;;;;;12.18;11.18;;;;;;;;;;4991914;28;20121;-69
2022/05/12 07:32:08;;;;;;;12.65;11.68;;;;;;;;;;4990961;28;20038;-69
2022/05/12 07:34:35;;;;;;;11.90;11.00;;;;;;;;;;4991045;28;20038;-69
2022/05/12 07:37:01;;;;;;;11.35;10.65;;;;;;;;;;4988631;28;20056;-69
2022/05/12 07:39:28;;;;;;;12.27;11.48;;;;;;;;;;4991676;28;20367;-69
2022/05/12 07:41:56;;;;;;;12.57;11.30;;;;;;;;;;4990110;28;20054;-69
2022/05/12 07:44:29;;;;;;;12.88;11.80;;;;;;;;;;4991107;28;20034;-69
2022/05/12 07:46:54;;;;;;;12.88;11.88;;;;;;;;;;4986510;28;20497;-68
2022/05/12 07:49:20;;;;;;;13.27;12.20;;;;;;;;;;4990120;28;20049;-68
2022/05/12 07:51:45;;;;;;;13.63;12.63;;;;;;;;;;4986334;28;20049;-68
2022/05/12 07:54:11;;;;;;;12.18;11.15;;;;;;;;;;4996108;28;20050;-70
2022/05/12 07:56:38;;;;;;;12.82;11.57;;;;;;;;;;4988941;28;20041;-69
2022/05/12 07:59:04;;;;;;;14.80;11.38;;;;;;;;;;4990742;28;20492;-69
2022/05/12 08:01:30;;;;;;;12.18;11.38;;;;;;;;;;4991415;28;20030;-69
2022/05/12 08:03:56;;;;;;;12.13;11.18;;;;;;;;;;4991033;28;20156;-69
2022/05/12 08:06:22;;;;;;;11.57;10.77;;;;;;;;;;4989799;28;20033;-69
2022/05/12 08:08:50;;;;;;;13.40;12.18;;;;;;;;;;4989407;28;20074;-70
2022/05/12 08:11:15;;;;;;;11.38;10.50;;;;;;;;;;4990737;28;20062;-69
2022/05/12 08:13:46;;;;;;;12.55;11.75;;;;;;;;;;4988859;28;20115;-71
2022/05/12 08:16:13;;;;;;;12.13;11.23;;;;;;;;;;4991208;28;20053;-69
2022/05/12 08:18:38;;;;;;;12.73;11.88;;;;;;;;;;4991247;28;20034;-69
2022/05/12 08:21:05;;;;;;;12.18;11.30;;;;;;;;;;4991445;28;20101;-69
2022/05/12 08:23:31;;;;;;;13.20;12.00;;;;;;;;;;4986320;28;20084;-68
2022/05/12 08:25:57;;;;;;;12.43;11.40;;;;;;;;;;4990013;28;20053;-68
2022/05/12 08:28:24;;;;;;;12.82;11.82;;;;;;;;;;4989535;28;20044;-69
2022/05/12 08:30:50;;;;;;;11.85;10.95;;;;;;;;;;4989525;28;20034;-68
2022/05/12 08:33:17;;;;;;;12.73;11.63;;;;;;;;;;4988668;28;20046;-68
2022/05/12 08:35:43;;;;;;;12.25;11.40;;;;;;;;;;4986192;28;20032;-69
2022/05/12 08:38:10;;;;;;;12.40;11.57;;;;;;;;;;4990896;28;20026;-70
2022/05/12 08:40:45;;;;;;;12.77;11.77;;;;;;;;;;4985678;28;20038;-68
2022/05/12 08:43:15;;;;;;;12.38;11.48;;;;;;;;;;4987646;28;20053;-68
2022/05/12 08:45:42;;;;;;;11.88;10.98;;;;;;;;;;4990549;28;20497;-69
2022/05/12 08:48:11;;;;;;;12.15;11.18;;;;;;;;;;4990987;28;20118;-69
2022/05/12 08:50:39;;;;;;;11.77;10.73;;;;;;;;;;4988515;28;20058;-68
2022/05/12 08:53:12;;;;;;;12.17;11.23;;;;;;;;;;4990413;28;20042;-68
2022/05/12 08:55:49;;;;;;;12.93;11.85;;;;;;;;;;4989918;28;20490;-69
2022/05/12 08:58:25;;;;;;;12.27;11.23;;;;;;;;;;4987731;28;20049;-69
2022/05/12 09:01:09;;;;;;;12.05;11.25;;;;;;;;;;4988771;28;20026;-69
2022/05/12 09:03:48;;;;;;;13.48;11.63;;;;;;;;;;4985617;28;20038;-69
2022/05/12 09:06:21;;;;;;;;;;;;;;;;;;4987628;28;20030;-68
2022/05/12 09:09:02;;;;;;;12.65;11.75;;;;;;;;;;4988452;28;20357;-68
2022/05/12 09:11:43;;;;;;;12.95;11.88;;;;;;;;;;4988362;28;20048;-69
2022/05/12 09:14:22;;;;;;;12.55;11.55;;;;;;;;;;4985879;28;20042;-68
2022/05/12 09:16:52;;;;;;;12.48;11.57;;;;;;;;;;4990073;28;20066;-69
2022/05/12 09:19:19;;;;;;;12.23;11.52;;;;;;;;;;4994020;28;20069;-69
2022/05/12 09:21:45;;;;;;;12.27;11.40;;;;;;;;;;4988408;28;20077;-69
2022/05/12 09:24:11;;;;;;;12.40;11.40;;;;;;;;;;4987483;28;20037;-68
2022/05/12 09:27:06;;;;;;;12.73;11.88;;;;;;;;;;4986828;28;20038;-69
2022/05/12 09:29:48;;;;;;;11.95;11.15;;;;;;;;;;4987635;28;20045;-67
2022/05/12 09:32:14;;;;;;;13.02;12.13;;;;;;;;;;4985217;28;20096;-69
2022/05/12 09:35:02;;;;;;;12.18;11.15;;;;;;;;;;4987670;28;20046;-69
2022/05/12 09:37:29;;;;;;;12.35;11.30;;;;;;;;;;4989766;28;20034;-68
2022/05/12 09:39:57;;;;;;;12.35;11.55;;;;;;;;;;4988569;28;20037;-68
2022/05/12 09:42:28;;;;;;;11.52;10.73;;;;;;;;;;4988368;28;20528;-68
2022/05/12 09:45:03;;;;;;;12.43;11.63;;;;;;;;;;4987144;28;20557;-68
2022/05/12 09:47:30;;;;;;;12.57;11.77;;;;;;;;;;4987556;28;20038;-68
2022/05/12 09:50:23;;;;;;;12.65;11.82;;;;;;;;;;4986153;28;20037;-68
2022/05/12 09:52:55;;;;;;;13.18;12.07;;;;;;;;;;4990014;28;20532;-69
2022/05/12 09:55:28;;;;;;;12.05;11.35;;;;;;;;;;4994199;28;20065;-69
2022/05/12 09:57:57;;;;;;;13.02;11.82;;;;;;;;;;4985795;28;20591;-69
2022/05/12 10:00:43;;;;;;;;;;;;;;;;;;4987163;28;20113;-68
2022/05/12 10:09:01;;;;;;;12.77;11.80;;;;;;;;;;4987946;28;20092;-68
2022/05/12 10:11:31;;;;;;;13.68;11.30;;;;;;;;;;4988494;28;20438;-67
2022/05/12 10:14:00;;;;;;;12.27;11.40;;;;;;;;;;4986338;28;20034;-68
2022/05/12 10:16:30;;;;;;;11.73;10.75;;;;;;;;;;4986669;28;20056;-69
2022/05/12 10:19:00;;;;;;;11.95;11.10;;;;;;;;;;4988474;28;20037;-69
2022/05/12 10:21:32;;;;;;;12.60;11.50;;;;;;;;;;4953476;28;20042;-68
2022/05/12 10:24:31;;;;;;;12.70;11.88;;;;;;;;;;4986796;28;20062;-68
2022/05/12 10:27:11;;;;;;;13.23;11.40;;;;;;;;;;4982207;28;20034;-69
2022/05/12 10:29:55;;;;;;;12.05;11.35;;;;;;;;;;4987095;28;20034;-69
2022/05/12 10:32:33;;;;;;;12.35;11.35;;;;;;;;;;4987808;28;20042;-69
2022/05/12 10:35:22;;;;;;;11.80;10.90;;;;;;;;;;4987123;28;20417;-69
2022/05/12 10:38:23;;;;;;;11.25;10.50;;;;;;;;;;4988922;28;20360;-68
2022/05/12 10:40:56;;;;;;;12.57;11.38;;;;;;;;;;4927082;29;20444;-68
2022/05/12 10:43:46;;;;;;;12.68;11.77;;;;;;;;;;4977820;28;20050;-68
2022/05/12 10:46:20;;;;;;;12.77;11.77;;;;;;;;;;4986385;28;20104;-69
2022/05/12 10:49:04;;;;;;;12.35;11.45;;;;;;;;;;4988384;28;20038;-68
2022/05/12 10:51:51;;;;;;;12.68;11.55;;;;;;;;;;4985153;28;20046;-69
2022/05/12 10:54:36;;;;;;;12.30;11.40;;;;;;;;;;4984947;28;20042;-68
2022/05/12 10:57:26;;;;;;;12.80;11.80;;;;;;;;;;4987024;28;20042;-69
2022/05/12 11:00:26;;;;;;;12.55;11.75;;;;;;;;;;4982787;28;20169;-69
2022/05/12 11:03:01;;;;;;;12.80;11.70;;;;;;;;;;4985984;28;20096;-69
2022/05/12 11:05:38;;;;;;;12.27;11.43;;;;;;;;;;4985372;28;20071;-69
2022/05/12 11:08:24;;;;;;;12.00;11.10;;;;;;;;;;4988029;28;20038;-69
2022/05/12 11:11:08;;;;;;;12.95;11.35;;;;;;;;;;4987893;28;20528;-69
2022/05/12 11:13:39;;;;;;;12.20;11.20;;;;;;;;;;4987514;28;20049;-68
2022/05/12 11:16:14;;;;;;;12.20;11.23;;;;;;;;;;4983866;28;20199;-70
2022/05/12 11:18:48;;;;;;;12.93;11.95;;;;;;;;;;4988152;28;20474;-68
2022/05/12 11:21:25;;;;;;;12.07;11.13;;;;;;;;;;4985754;28;20035;-70
2022/05/12 11:23:59;;;;;;;11.98;10.77;;;;;;;;;;4984188;28;20027;-70
2022/05/12 11:26:49;;;;;;;11.35;10.40;;;;;;;;;;4987274;28;20046;-69
2022/05/12 11:29:44;;;;;;;14.05;11.10;;;;;;;;;;4987973;28;20073;-70
2022/05/12 11:32:26;;;;;;;11.98;10.95;;;;;;;;;;4984311;28;20088;-70
2022/05/12 11:34:56;;;;;;;11.73;10.73;;;;;;;;;;4985766;28;20039;-70
2022/05/12 11:37:29;;;;;;;12.35;11.13;;;;;;;;;;4986226;28;20077;-70
2022/05/12 11:40:02;;;;;;;12.88;11.88;;;;;;;;;;4992294;28;20090;-70
2022/05/12 11:45:42;;;;;;;12.82;11.80;;;;;;;;;;4984456;28;20046;-70
2022/05/12 11:48:08;;;;;;;12.55;11.65;;;;;;;;;;4983991;28;20425;-69
2022/05/12 11:50:46;;;;;;;11.93;10.88;;;;;;;;;;4985968;28;20214;-69
2022/05/12 11:53:18;;;;;;;12.10;11.15;;;;;;;;;;4986843;28;20031;-69
2022/05/12 11:55:53;;;;;;;12.50;11.40;;;;;;;;;;4985473;28;20049;-69
2022/05/12 11:58:48;;;;;;;11.63;10.82;;;;;;;;;;4984014;28;20485;-67
2022/05/12 12:01:20;;;;;;;12.35;11.45;;;;;;;;;;4986232;28;20736;-69
2022/05/12 12:03:53;;;;;;;12.45;11.50;;;;;;;;;;4981557;28;20359;-69
2022/05/12 12:06:54;;;;;;;12.60;11.38;;;;;;;;;;4986395;28;20042;-68
2022/05/12 12:09:27;;;;;;;12.93;11.68;;;;;;;;;;4988511;28;20042;-69
2022/05/12 12:11:53;;;;;;;13.02;11.88;;;;;;;;;;4988488;28;20026;-67
2022/05/12 12:14:47;;;;;;;12.75;11.52;;;;;;;;;;4987265;28;20038;-69
2022/05/12 12:17:24;;;;;;;13.52;12.38;;;;;;;;;;4984637;28;20074;-69
2022/05/12 12:19:58;;;;;;;13.25;12.25;;;;;;;;;;4985604;28;20157;-70
2022/05/12 12:22:46;;;;;;;12.80;11.90;;;;;;;;;;4987555;28;20034;-69
2022/05/12 12:25:30;;;;;;;13.75;12.55;;;;;;;;;;4990981;28;20026;-69
2022/05/12 12:28:12;;;;;;;12.90;11.95;;;;;;;;;;4986961;28;20121;-69
2022/05/12 12:30:38;;;;;;;12.52;11.45;;;;;;;;;;4987370;28;20482;-69
2022/05/12 12:33:16;;;;;;;12.68;11.57;;;;;;;;;;4994669;28;20049;-68
2022/05/12 12:35:54;;;;;;;13.05;11.82;;;;;;;;;;4991323;28;20074;-68
2022/05/12 12:38:46;;;;;;;13.48;11.90;;;;;;;;;;4989836;28;20064;-67
2022/05/12 12:41:30;;;;;;;12.40;11.23;;;;;;;;;;4987249;28;20044;-67
2022/05/12 12:44:01;;;;;;;13.40;12.40;;;;;;;;;;4988070;28;20034;-70
2022/05/12 12:46:36;;;;;;;13.00;12.10;;;;;;;;;;4989236;28;20045;-68
2022/05/12 12:49:11;;;;;;;13.70;12.25;;;;;;;;;;4987688;28;20156;-69
2022/05/12 12:51:39;;;;;;;12.90;12.00;;;;;;;;;;4989219;28;20561;-69
2022/05/12 12:57:16;;;;;;;12.98;12.05;;;;;;;;;;4984898;28;20125;-68
2022/05/12 12:59:49;;;;;;;12.63;11.55;;;;;;;;;;4986253;28;20038;-69
2022/05/12 13:02:30;;;;;;;13.60;12.60;;;;;;;;;;4989019;28;20104;-68
2022/05/12 13:04:58;;;;;;;13.20;12.15;;;;;;;;;;4988870;28;20040;-69
2022/05/12 13:07:34;;;;;;;13.23;11.88;;;;;;;;;;4990670;28;20038;-68
2022/05/12 13:10:12;;;;;;;13.38;12.18;;;;;;;;;;4987525;28;20065;-68
2022/05/12 13:12:37;;;;;;;13.52;12.43;;;;;;;;;;4987704;28;20034;-69
2022/05/12 13:15:18;;;;;;;13.23;12.25;;;;;;;;;;4991515;28;20442;-67
2022/05/12 13:17:49;;;;;;;13.52;12.52;;;;;;;;;;4989642;28;20042;-68
2022/05/12 13:20:21;;;;;;;13.32;11.88;;;;;;;;;;4987023;28;20046;-68
2022/05/12 13:22:52;;;;;;;13.48;12.38;;;;;;;;;;4987782;28;20073;-69
2022/05/12 13:25:38;;;;;;;13.02;12.05;;;;;;;;;;4987861;28;20038;-69
2022/05/12 13:28:06;;;;;;;13.38;12.25;;;;;;;;;;4981500;28;20068;-68
2022/05/12 13:30:46;;;;;;;13.00;12.00;;;;;;;;;;4987748;28;20030;-68
2022/05/12 13:33:19;;;;;;;13.32;12.13;;;;;;;;;;4987573;28;20038;-68
2022/05/12 13:35:56;;;;;;;13.50;12.50;;;;;;;;;;4988105;28;20073;-67
2022/05/12 13:38:22;;;;;;;13.52;12.35;;;;;;;;;;4985139;28;20062;-68
2022/05/12 13:40:54;;;;;;;13.15;12.15;;;;;;;;;;4988160;28;20078;-69
2022/05/12 13:43:31;;;;;;;13.43;12.18;;;;;;;;;;4987990;28;20038;-69
2022/05/12 13:46:04;;;;;;;13.25;12.20;;;;;;;;;;4985572;28;20120;-67
2022/05/12 13:48:31;;;;;;;13.48;12.32;;;;;;;;;;4989441;28;20030;-68
2022/05/12 13:50:57;;;;;;;13.13;11.95;;;;;;;;;;4987712;28;20037;-68
2022/05/12 13:53:25;;;;;;;13.90;12.70;;;;;;;;;;4988977;28;20087;-68
2022/05/12 13:56:12;;;;;;;13.82;12.68;;;;;;;;;;4985987;28;20117;-68
2022/05/12 13:58:51;;;;;;;13.27;12.25;;;;;;;;;;4986027;28;20046;-68
2022/05/12 14:01:26;;;;;;;13.65;12.70;;;;;;;;;;4987835;28;20399;-69
2022/05/12 14:04:14;;;;;;;12.93;11.75;;;;;;;;;;4987166;28;20040;-69
2022/05/12 14:06:43;;;;;;;11.98;11.18;;;;;;;;;;4986340;28;20049;-68
2022/05/12 14:09:15;;;;;;;13.15;12.07;;;;;;;;;;4987034;28;20053;-68
2022/05/12 14:11:41;;;;;;;12.18;11.38;;;;;;;;;;4987032;28;20045;-68
2022/05/12 14:19:42;;;;;;;12.93;11.95;;;;;;;;;;4986505;28;20421;-69
2022/05/12 14:22:11;;;;;;;13.15;11.95;;;;;;;;;;4987624;28;20057;-67
2022/05/12 14:24:39;;;;;;;;;;;;;;;;;;4988486;28;20046;-68
2022/05/12 14:27:06;;;;;;;13.23;12.18;;;;;;;;;;4988729;28;19963;-69
2022/05/12 14:29:32;;;;;;;13.45;12.43;;;;;;;;;;4988583;28;20042;-68
2022/05/12 14:31:59;;;;;;;13.18;12.15;;;;;;;;;;4987478;28;20470;-68
2022/05/12 14:34:25;;;;;;;12.77;11.68;;;;;;;;;;4987965;28;20030;-67
2022/05/12 14:36:52;;;;;;;12.88;12.05;;;;;;;;;;4988688;28;20493;-69
2022/05/12 14:39:18;;;;;;;12.73;11.73;;;;;;;;;;4988552;28;20089;-69
2022/05/12 14:41:44;;;;;;;12.65;11.70;;;;;;;;;;4987612;28;20038;-69
2022/05/12 14:44:10;;;;;;;12.35;11.48;;;;;;;;;;4987718;28;20528;-69
2022/05/12 14:46:39;;;;;;;12.93;11.93;;;;;;;;;;4987134;28;20173;-69
2022/05/12 14:49:07;;;;;;;12.88;11.68;;;;;;;;;;4988460;28;20037;-69
2022/05/12 14:51:33;;;;;;;12.82;11.82;;;;;;;;;;4986981;28;20433;-68
2022/05/12 14:53:58;;;;;;;12.77;11.88;;;;;;;;;;4987597;28;20648;-68
2022/05/12 14:56:24;;;;;;;12.93;11.90;;;;;;;;;;4987987;28;20041;-68
2022/05/12 14:58:50;;;;;;;12.55;11.50;;;;;;;;;;4986457;28;20533;-69
2022/05/12 15:01:16;;;;;;;12.40;11.45;;;;;;;;;;4991312;28;20034;-68
2022/05/12 15:03:42;;;;;;;12.55;11.65;;;;;;;;;;4988362;28;20034;-69